LELC/MJV METAR and TAF weather

Enter ICAO airport designator
Station Type Date Time Source
LELC METAR 2020/07/11 17:30 UTC NOAA

LELC 111730Z 07011KT 030V120 CAVOK 28/21 Q1016 NOSIG


Station Type Date Time Source
LELC Decoded METAR 2020/07/11 17:30 UTC NOAA

Murcia / San Javier, Spain (LELC) 37-47N 000-48W 3M
Jul 11, 2020 - 01:30 PM EDT / 2020.07.11 1730 UTC
Wind: from the ENE (070 degrees) at 13 MPH (11 KT) (direction variable):0
Visibility: greater than 7 mile(s):0
Temperature: 82 F (28 C)
Dew Point: 69 F (21 C)
Relative Humidity: 65%
Pressure (altimeter): 30.00 in. Hg (1016 hPa)
ob: LELC 111730Z 07011KT 030V120 CAVOK 28/21 Q1016 NOSIG
cycle: 17

Station Type Date Time Source
LELC TAF 2020/07/11 18:27 UTC NOAA

TAF LELC 111700Z 1118/1218 06012KT CAVOK TX31/1212Z TN23/1205Z
BECMG 1123/1201 36005KT
BECMG 1207/1209 06012KT

Example: see airport list